| time (UTC) | temp F | wind direction | speed knots | gust knots | rain 1hr in | rain 24hr in | rain mn in | humidity % | barometer mb |
| 20260507180048 | 65 | 118 | 0.0 | 0.9 | 0.00 | 0.19 | 0.19 | 72 | 1012.2 |
| 20260507174547 | 65 | 123 | 0.0 | 1.7 | 0.00 | 0.19 | 0.19 | 72 | 1012.2 |
| 20260507173115 | 65 | 136 | 0.0 | 2.6 | 0.00 | 0.19 | 0.19 | 70 | 1012.2 |
| 20260507171547 | 65 | 109 | 0.0 | 4.3 | 0.00 | 0.19 | 0.19 | 69 | 1012.2 |
| 20260507170048 | 66 | 133 | 0.0 | 6.1 | 0.00 | 0.19 | 0.19 | 71 | 1012.2 |
| 20260507164553 | 66 | 125 | 0.0 | 3.5 | 0.00 | 0.19 | 0.19 | 72 | 1012.2 |
| 20260507163044 | 66 | 131 | 0.0 | 3.5 | 0.00 | 0.19 | 0.19 | 70 | 1012.2 |
| 20260507161549 | 66 | 300 | 0.0 | 2.6 | 0.00 | 0.19 | 0.19 | 70 | 1012.1 |
| 20260507160059 | 66 | 130 | 0.0 | 3.5 | 0.00 | 0.19 | 0.19 | 68 | 1012.1 |
| 20260507154541 | 66 | 310 | 2.6 | 7.0 | 0.00 | 0.19 | 0.19 | 68 | 1012.2 |
| 20260507153043 | 66 | 121 | 0.0 | 4.3 | 0.00 | 0.19 | 0.19 | 68 | 1012.0 |
| 20260507151542 | 67 | 94 | 0.0 | 7.8 | 0.00 | 0.19 | 0.19 | 67 | 1012.0 |
| 20260507150040 | 66 | 223 | 0.0 | 2.6 | 0.00 | 0.19 | 0.19 | 70 | 1012.0 |
| 20260507144549 | 66 | 159 | 0.9 | 4.3 | 0.00 | 0.19 | 0.19 | 70 | 1012.0 |
| 20260507143038 | 67 | 125 | 0.0 | 6.1 | 0.00 | 0.19 | 0.19 | 71 | 1012.0 |
| 20260507141534 | 66 | 131 | 0.0 | 2.6 | 0.00 | 0.19 | 0.19 | 75 | 1012.1 |
| 20260507140034 | 65 | 137 | 0.0 | 2.6 | 0.00 | 0.19 | 0.19 | 75 | 1012.2 |
| 20260507134531 | 65 | 137 | 0.9 | 6.1 | 0.00 | 0.19 | 0.19 | 74 | 1012.3 |
| 20260507133030 | 64 | 304 | 0.0 | 2.6 | 0.00 | 0.19 | 0.19 | 77 | 1012.5 |
| 20260507131530 | 64 | 36 | 0.0 | 1.7 | 0.00 | 0.19 | 0.19 | 77 | 1012.8 |
| 20260507130031 | 64 | 155 | 0.0 | 3.5 | 0.00 | 0.19 | 0.19 | 78 | 1013.3 |
| 20260507124523 | 64 | 219 | 0.0 | 0.9 | 0.00 | 0.19 | 0.19 | 81 | 1013.3 |
| 20260507123029 | 63 | 127 | 0.0 | 1.7 | 0.00 | 0.19 | 0.19 | 81 | 1013.4 |
| 20260507121520 | 63 | 321 | 0.0 | 1.7 | 0.00 | 0.19 | 0.19 | 81 | 1013.6 |
| 20260507120018 | 63 | 180 | 0.0 | 2.6 | 0.00 | 0.19 | 0.19 | 82 | 1013.5 |
| 20260507114517 | 62 | 213 | 0.0 | 0.9 | 0.00 | 0.19 | 0.19 | 83 | 1013.4 |
| 20260507113024 | 62 | 302 | 0.0 | 1.7 | 0.00 | 0.19 | 0.19 | 85 | 1013.5 |
| 20260507111514 | 62 | 302 | 0.0 | 0.0 | 0.00 | 0.19 | 0.19 | 85 | 1013.8 |
| 20260507110015 | 62 | 299 | 0.0 | 1.7 | 0.00 | 0.19 | 0.19 | 85 | 1013.7 |
| 20260507104515 | 61 | 305 | 0.0 | 0.0 | 0.00 | 0.19 | 0.19 | 86 | 1013.6 |
| 20260507103013 | 61 | 125 | 0.0 | 0.0 | 0.01 | 0.19 | 0.19 | 87 | 1013.9 |
| 20260507101516 | 61 | 150 | 0.0 | 0.0 | 0.02 | 0.19 | 0.19 | 87 | 1013.9 |
| 20260507100013 | 61 | 230 | 0.0 | 0.9 | 0.02 | 0.19 | 0.19 | 87 | 1013.9 |
| 20260507094510 | 60 | 136 | 0.0 | 2.6 | 0.02 | 0.19 | 0.19 | 87 | 1014.0 |
| 20260507093011 | 60 | 302 | 0.0 | 1.7 | 0.02 | 0.18 | 0.18 | 87 | 1014.0 |
| 20260507091507 | 60 | 121 | 0.0 | 1.7 | 0.01 | 0.17 | 0.17 | 87 | 1014.1 |
| 20260507090006 | 60 | 132 | 0.0 | 0.0 | 0.01 | 0.17 | 0.17 | 87 | 1013.9 |
| 20260507084507 | 60 | 126 | 0.0 | 0.0 | 0.02 | 0.17 | 0.17 | 86 | 1013.7 |
| 20260507083002 | 60 | 125 | 0.0 | 0.9 | 0.06 | 0.17 | 0.17 | 86 | 1013.6 |